createdAt,value
2017-10-28T00:00:18.783Z,1020.50
2017-10-28T00:05:14.090Z,1020.35
2017-10-28T00:10:09.773Z,1020.22
2017-10-28T00:15:05.598Z,1020.26
2017-10-28T00:20:01.420Z,1020.27
2017-10-28T00:24:58.341Z,1020.18
2017-10-28T00:29:54.070Z,1019.94
2017-10-28T00:34:49.942Z,1019.84
2017-10-28T00:39:46.771Z,1019.73
2017-10-28T00:44:43.394Z,1019.87
2017-10-28T00:49:38.944Z,1019.78
2017-10-28T00:54:34.685Z,1019.82
2017-10-28T00:59:30.417Z,1019.57
2017-10-28T01:04:27.424Z,1019.52
2017-10-28T01:09:22.968Z,1019.26
2017-10-28T01:14:20.381Z,1019.10
2017-10-28T01:19:17.058Z,1019.17
2017-10-28T01:24:12.546Z,1019.20
2017-10-28T01:29:08.300Z,1019.07
2017-10-28T01:34:06.081Z,1018.93
2017-10-28T01:39:01.347Z,1018.75
2017-10-28T01:43:58.428Z,1018.77
2017-10-28T01:48:54.006Z,1018.72
2017-10-28T01:53:51.118Z,1018.57
2017-10-28T01:58:46.528Z,1018.48
2017-10-28T02:03:43.649Z,1018.37
2017-10-28T02:08:39.794Z,1018.22
2017-10-28T02:13:35.321Z,1018.07
2017-10-28T02:18:31.071Z,1018.14
2017-10-28T02:23:26.551Z,1018.18
2017-10-28T02:28:23.543Z,1018.06
2017-10-28T02:33:19.938Z,1017.70
2017-10-28T02:38:15.726Z,1017.73
2017-10-28T02:43:12.168Z,1017.74
2017-10-28T02:48:08.193Z,1017.38
2017-10-28T02:53:03.775Z,1017.50
2017-10-28T02:58:00.876Z,1017.45
2017-10-28T03:02:58.703Z,1017.39
2017-10-28T03:07:53.774Z,1017.26
2017-10-28T03:12:50.915Z,1017.05
2017-10-28T03:17:46.176Z,1017.11
2017-10-28T03:22:43.017Z,1016.98
2017-10-28T03:27:39.164Z,1016.83
2017-10-28T03:32:34.677Z,1016.52
2017-10-28T03:37:31.407Z,1016.64
2017-10-28T03:42:28.035Z,1016.69
2017-10-28T03:47:24.386Z,1016.68
2017-10-28T03:52:20.462Z,1016.63
2017-10-28T03:57:16.872Z,1016.48
2017-10-28T04:02:12.200Z,1016.59
2017-10-28T04:07:08.307Z,1016.36
2017-10-28T04:12:04.241Z,1016.35
2017-10-28T04:17:00.380Z,1016.08
2017-10-28T04:21:56.382Z,1015.99
2017-10-28T04:26:53.061Z,1016.13
2017-10-28T04:31:49.864Z,1015.96
2017-10-28T04:36:45.702Z,1015.88
2017-10-28T04:41:41.483Z,1015.64
2017-10-28T04:46:36.876Z,1015.75
2017-10-28T04:51:33.506Z,1015.62
2017-10-28T04:56:29.142Z,1015.64
2017-10-28T05:01:25.944Z,1015.48
2017-10-28T05:06:21.703Z,1015.46
2017-10-28T05:11:17.446Z,1015.31
2017-10-28T05:16:13.435Z,1015.19
2017-10-28T05:21:10.285Z,1015.01
2017-10-28T05:26:05.833Z,1014.94
2017-10-28T05:31:01.486Z,1014.92
2017-10-28T05:35:58.353Z,1014.70
2017-10-28T05:40:53.832Z,1014.51
2017-10-28T05:45:50.552Z,1014.58
2017-10-28T05:50:48.568Z,1014.45
2017-10-28T05:55:43.333Z,1014.04
2017-10-28T06:00:40.114Z,1014.00
2017-10-28T06:05:36.647Z,1013.99
2017-10-28T06:10:33.552Z,1014.07
2017-10-28T06:15:30.801Z,1014.04
2017-10-28T06:20:26.032Z,1014.08
2017-10-28T06:25:22.002Z,1014.29
2017-10-28T06:30:18.695Z,1014.43
2017-10-28T06:35:16.350Z,1014.44
2017-10-28T06:40:11.129Z,1014.17
2017-10-28T06:45:07.212Z,1014.12
2017-10-28T06:50:03.307Z,1013.97
2017-10-28T06:55:00.198Z,1013.90
2017-10-28T06:59:56.619Z,1013.82
2017-10-28T07:04:55.775Z,1013.82
2017-10-28T07:09:50.877Z,1013.75
2017-10-28T07:14:47.871Z,1013.67
2017-10-28T07:19:44.201Z,1013.52
2017-10-28T07:24:41.971Z,1013.51
2017-10-28T07:29:37.419Z,1013.79
2017-10-28T07:34:34.174Z,1013.73
2017-10-28T07:39:30.036Z,1013.91
2017-10-28T07:44:26.042Z,1013.95
2017-10-28T07:49:24.072Z,1013.79
2017-10-28T07:54:20.419Z,1013.79
2017-10-28T07:59:17.083Z,1013.84
2017-10-28T08:04:13.650Z,1013.45
2017-10-28T08:09:09.358Z,1013.47
2017-10-28T08:14:07.031Z,1013.63
2017-10-28T08:19:02.244Z,1013.76
2017-10-28T08:23:58.985Z,1013.77
2017-10-28T08:28:55.810Z,1013.62
2017-10-28T08:33:52.511Z,1013.42
2017-10-28T08:38:48.097Z,1013.45
2017-10-28T08:43:44.790Z,1013.26
2017-10-28T08:48:41.438Z,1013.22
2017-10-28T08:53:37.842Z,1013.08
2017-10-28T08:58:34.553Z,1013.06
2017-10-28T09:03:30.407Z,1012.92
2017-10-28T09:08:26.548Z,1012.77
2017-10-28T09:13:24.150Z,1012.71
2017-10-28T09:18:19.720Z,1012.61
2017-10-28T09:23:17.464Z,1012.54
2017-10-28T09:28:13.120Z,1012.79
2017-10-28T09:33:08.919Z,1012.57
2017-10-28T09:38:05.215Z,1012.61
2017-10-28T09:43:01.120Z,1012.64
2017-10-28T09:47:57.920Z,1012.58
2017-10-28T09:52:53.687Z,1012.65
2017-10-28T09:57:50.552Z,1012.59
2017-10-28T10:02:46.229Z,1012.59
2017-10-28T10:07:41.884Z,1012.53
2017-10-28T10:12:37.681Z,1012.49
2017-10-28T10:17:33.349Z,1012.40
2017-10-28T10:22:29.250Z,1012.27
2017-10-28T10:27:27.140Z,1012.25
2017-10-28T10:32:22.734Z,1012.11
2017-10-28T10:37:18.474Z,1011.95
2017-10-28T10:42:14.150Z,1012.03
2017-10-28T10:47:11.784Z,1011.95
2017-10-28T10:52:08.415Z,1011.78
2017-10-28T10:57:04.051Z,1011.88
2017-10-28T11:02:00.310Z,1011.73
2017-10-28T11:06:57.276Z,1011.43
2017-10-28T11:11:53.926Z,1011.47
2017-10-28T11:16:49.597Z,1011.41
2017-10-28T11:21:45.815Z,1011.28
2017-10-28T11:26:41.736Z,1011.23
2017-10-28T11:31:38.667Z,1011.01
2017-10-28T11:36:34.357Z,1011.18
2017-10-28T11:41:30.114Z,1011.28
2017-10-28T11:46:25.950Z,1011.30
2017-10-28T11:51:21.624Z,1010.99
2017-10-28T11:56:17.463Z,1010.83
2017-10-28T12:01:13.013Z,1010.80
2017-10-28T12:06:08.445Z,1010.59
2017-10-28T12:11:05.445Z,1010.35
2017-10-28T12:16:03.159Z,1010.14
2017-10-28T12:21:01.303Z,1009.82
2017-10-28T12:25:57.816Z,1009.92
2017-10-28T12:30:53.770Z,1009.83
2017-10-28T12:35:50.255Z,1009.85
2017-10-28T12:40:47.908Z,1009.58
2017-10-28T12:45:43.386Z,1009.45
2017-10-28T12:50:39.819Z,1009.35
2017-10-28T12:55:35.871Z,1009.50
2017-10-28T13:00:32.490Z,1009.54
2017-10-28T13:05:28.389Z,1009.65
2017-10-28T13:10:25.304Z,1009.43
2017-10-28T13:15:23.707Z,1009.38
2017-10-28T13:20:18.883Z,1009.44
2017-10-28T13:25:14.581Z,1009.40
2017-10-28T13:30:11.279Z,1009.36
2017-10-28T13:35:06.956Z,1009.38
2017-10-28T13:40:06.862Z,1009.42
2017-10-28T13:45:01.853Z,1009.29
2017-10-28T13:49:57.621Z,1009.20
2017-10-28T13:54:53.389Z,1009.04
2017-10-28T13:59:49.395Z,1009.00
2017-10-28T14:04:44.851Z,1008.91
2017-10-28T14:09:41.589Z,1009.05
2017-10-28T14:14:38.181Z,1008.99
2017-10-28T14:19:33.985Z,1008.95
2017-10-28T14:24:29.897Z,1008.88
2017-10-28T14:29:25.609Z,1008.82
2017-10-28T14:34:22.847Z,1008.53
2017-10-28T14:39:18.552Z,1008.65
2017-10-28T14:44:16.459Z,1008.55
2017-10-28T14:49:13.551Z,1008.42
2017-10-28T14:54:10.129Z,1008.31
2017-10-28T14:59:06.520Z,1008.15
2017-10-28T15:04:02.878Z,1008.28
2017-10-28T15:08:59.313Z,1008.05
2017-10-28T15:13:56.020Z,1008.07
2017-10-28T15:18:51.333Z,1008.04
2017-10-28T15:23:47.417Z,1007.92
2017-10-28T15:28:45.712Z,1007.95
2017-10-28T15:33:42.024Z,1007.74
2017-10-28T15:38:38.400Z,1007.67
2017-10-28T15:43:33.919Z,1007.64
2017-10-28T15:48:29.652Z,1007.49
2017-10-28T15:53:25.318Z,1007.31
2017-10-28T15:58:23.133Z,1007.18
2017-10-28T16:03:20.529Z,1007.18
2017-10-28T16:08:15.885Z,1007.09
2017-10-28T16:13:11.527Z,1007.04
2017-10-28T16:18:07.454Z,1006.89
2017-10-28T16:23:03.168Z,1006.71
2017-10-28T16:27:58.688Z,1006.64
2017-10-28T16:32:54.414Z,1006.63
2017-10-28T16:37:50.454Z,1006.61
2017-10-28T16:42:46.234Z,1006.53
2017-10-28T16:47:41.764Z,1006.44
2017-10-28T16:52:37.735Z,1006.54
2017-10-28T16:57:33.735Z,1006.43
2017-10-28T17:02:30.953Z,1006.31
2017-10-28T17:07:27.532Z,1006.17
2017-10-28T17:12:23.148Z,1006.05
2017-10-28T17:17:19.446Z,1006.03
2017-10-28T17:22:15.238Z,1005.81
2017-10-28T17:27:12.077Z,1005.66
2017-10-28T17:32:08.689Z,1005.42
2017-10-28T17:37:05.903Z,1005.47
2017-10-28T17:42:01.572Z,1005.27
2017-10-28T17:46:58.498Z,1005.35
2017-10-28T17:51:54.804Z,1005.44
2017-10-28T17:56:51.891Z,1005.33
2017-10-28T18:01:49.841Z,1005.36
2017-10-28T18:06:45.489Z,1005.23
2017-10-28T18:11:42.482Z,1005.05
2017-10-28T18:16:39.074Z,1004.96
2017-10-28T18:21:35.448Z,1004.90
2017-10-28T18:26:32.661Z,1004.92
2017-10-28T18:31:30.368Z,1004.74
2017-10-28T18:36:26.620Z,1004.66
2017-10-28T18:41:23.281Z,1004.36
2017-10-28T18:46:18.943Z,1004.22
2017-10-28T18:51:14.813Z,1004.27
2017-10-28T18:56:11.171Z,1004.14
2017-10-28T19:01:07.126Z,1004.11
2017-10-28T19:06:04.364Z,1003.89
2017-10-28T19:11:02.025Z,1003.70
2017-10-28T19:15:57.803Z,1003.53
2017-10-28T19:20:54.097Z,1003.58
2017-10-28T19:25:50.031Z,1003.45
2017-10-28T19:30:45.946Z,1003.21
2017-10-28T19:35:41.818Z,1003.01
2017-10-28T19:40:38.558Z,1002.94
2017-10-28T19:45:34.144Z,1002.82
2017-10-28T19:50:31.966Z,1002.78
2017-10-28T19:55:29.222Z,1002.69
2017-10-28T20:00:25.676Z,1002.62
2017-10-28T20:10:25.194Z,1002.26
2017-10-28T20:15:20.706Z,1002.25
2017-10-28T20:20:16.555Z,1002.23
2017-10-28T20:25:12.700Z,1002.25
2017-10-28T20:30:09.474Z,1002.02
2017-10-28T20:35:05.186Z,1001.84
2017-10-28T20:40:01.303Z,1001.76
2017-10-28T20:44:56.724Z,1001.68
2017-10-28T20:49:53.072Z,1001.52
2017-10-28T20:54:49.101Z,1001.58
2017-10-28T20:59:45.977Z,1001.49
2017-10-28T21:04:42.494Z,1001.39
2017-10-28T21:09:38.081Z,1001.28
2017-10-28T21:14:35.907Z,1001.14
2017-10-28T21:19:32.213Z,1000.91
2017-10-28T21:24:28.874Z,1000.79
2017-10-28T21:29:25.474Z,1000.62
2017-10-28T21:34:24.184Z,1000.61
2017-10-28T21:39:20.854Z,1000.60
2017-10-28T21:44:17.503Z,1000.49
2017-10-28T21:49:14.878Z,1000.39
2017-10-28T21:54:10.577Z,1000.29
2017-10-28T21:59:07.466Z,1000.04
2017-10-28T22:04:03.990Z,999.94
2017-10-28T22:14:00.500Z,999.78
2017-10-28T22:18:57.317Z,999.55
2017-10-28T22:23:53.520Z,999.38
2017-10-28T22:28:50.152Z,999.42
2017-10-28T22:33:46.121Z,999.28
2017-10-28T22:38:41.930Z,999.03
2017-10-28T22:43:38.871Z,999.18
2017-10-28T22:48:34.290Z,999.13
2017-10-28T22:53:31.136Z,999.14
2017-10-28T22:58:27.260Z,998.92
2017-10-28T23:03:24.371Z,998.88
2017-10-28T23:08:19.996Z,998.79
2017-10-28T23:13:16.025Z,998.49
2017-10-28T23:18:12.808Z,998.34
2017-10-28T23:23:08.665Z,998.45
2017-10-28T23:28:05.867Z,998.31
2017-10-28T23:33:05.744Z,998.05
2017-10-28T23:38:01.486Z,997.97
2017-10-28T23:42:57.095Z,998.07
2017-10-28T23:47:53.731Z,998.01
2017-10-28T23:52:49.187Z,997.91
2017-10-28T23:57:45.490Z,997.99
